createdAt,value
2018-08-17T00:00:15.642Z,98891.00
2018-08-17T00:02:19.781Z,98892.00
2018-08-17T00:04:23.689Z,98890.00
2018-08-17T00:06:28.269Z,98882.00
2018-08-17T00:08:33.409Z,98890.00
2018-08-17T00:10:37.110Z,98881.00
2018-08-17T00:12:41.290Z,98882.00
2018-08-17T00:14:45.010Z,98887.00
2018-08-17T00:16:49.312Z,98890.00
2018-08-17T00:18:53.521Z,98887.00
2018-08-17T00:21:04.658Z,98891.00
2018-08-17T00:23:13.216Z,98888.00
2018-08-17T00:25:16.711Z,98882.00
2018-08-17T00:27:20.705Z,98885.00
2018-08-17T00:29:26.349Z,98880.00
2018-08-17T00:31:29.907Z,98873.00
2018-08-17T00:33:33.417Z,98876.00
2018-08-17T00:35:37.293Z,98874.00
2018-08-17T00:37:41.216Z,98872.00
2018-08-17T00:39:45.117Z,98874.00
2018-08-17T00:41:49.246Z,98876.00
2018-08-17T00:43:52.913Z,98875.00
2018-08-17T00:45:57.166Z,98876.00
2018-08-17T00:48:06.377Z,98875.00
2018-08-17T00:50:13.407Z,98876.00
2018-08-17T00:52:19.309Z,98877.00
2018-08-17T00:54:23.744Z,98876.00
2018-08-17T00:56:29.284Z,98873.00
2018-08-17T00:58:33.436Z,98878.00
2018-08-17T01:00:38.761Z,98884.00
2018-08-17T01:02:44.730Z,98889.00
2018-08-17T01:04:50.869Z,98881.00
2018-08-17T01:06:54.674Z,98891.00
2018-08-17T01:08:58.842Z,98881.00
2018-08-17T01:11:02.613Z,98880.00
2018-08-17T01:13:13.230Z,98882.00
2018-08-17T01:15:17.269Z,98877.00
2018-08-17T01:17:20.924Z,98877.00
2018-08-17T01:19:25.332Z,98878.00
2018-08-17T01:21:29.256Z,98877.00
2018-08-17T01:23:33.395Z,98875.00
2018-08-17T01:25:41.699Z,98879.00
2018-08-17T01:27:47.195Z,98878.00
2018-08-17T01:29:53.305Z,98878.00
2018-08-17T01:31:59.561Z,98878.00
2018-08-17T01:34:03.557Z,98876.00
2018-08-17T01:36:07.317Z,98879.00
2018-08-17T01:38:11.614Z,98884.00
2018-08-17T01:40:15.648Z,98884.00
2018-08-17T01:42:19.647Z,98879.00
2018-08-17T01:44:23.918Z,98881.00
2018-08-17T01:46:27.668Z,98876.00
2018-08-17T01:48:32.208Z,98876.00
2018-08-17T01:50:37.800Z,98872.00
2018-08-17T01:52:45.601Z,98872.00
2018-08-17T01:54:51.799Z,98875.00
2018-08-17T01:56:58.260Z,98871.00
2018-08-17T01:59:01.874Z,98872.00
2018-08-17T02:01:05.814Z,98873.00
2018-08-17T02:03:09.758Z,98876.00
2018-08-17T02:05:13.700Z,98876.00
2018-08-17T02:07:17.593Z,98875.00
2018-08-17T02:09:24.324Z,98871.00
2018-08-17T02:11:28.395Z,98876.00
2018-08-17T02:13:32.128Z,98878.00
2018-08-17T02:15:36.178Z,98880.00
2018-08-17T02:17:39.993Z,98875.00
2018-08-17T02:19:43.543Z,98877.00
2018-08-17T02:21:52.872Z,98878.00
2018-08-17T02:24:03.502Z,98874.00
2018-08-17T02:26:07.615Z,98876.00
2018-08-17T02:28:12.097Z,98876.00
2018-08-17T02:30:16.165Z,98877.00
2018-08-17T02:32:20.049Z,98875.00
2018-08-17T02:34:24.017Z,98879.00
2018-08-17T02:36:27.785Z,98885.00
2018-08-17T02:38:31.743Z,98883.00
2018-08-17T02:40:36.863Z,98883.00
2018-08-17T02:42:41.721Z,98880.00
2018-08-17T02:44:45.418Z,98889.00
2018-08-17T02:46:53.079Z,98886.00
2018-08-17T02:49:04.176Z,98896.00
2018-08-17T02:51:08.422Z,98892.00
2018-08-17T02:53:12.348Z,98889.00
2018-08-17T02:55:15.890Z,98889.00
2018-08-17T02:57:19.852Z,98888.00
2018-08-17T02:59:26.446Z,98881.00
2018-08-17T03:01:31.955Z,98885.00
2018-08-17T03:03:36.836Z,98886.00
2018-08-17T03:05:41.479Z,98885.00
2018-08-17T03:07:45.626Z,98884.00
2018-08-17T03:09:49.601Z,98885.00
2018-08-17T03:11:56.898Z,98881.00
2018-08-17T03:14:05.471Z,98881.00
2018-08-17T03:16:12.010Z,98882.00
2018-08-17T03:18:15.985Z,98879.00
2018-08-17T03:20:19.747Z,98879.00
2018-08-17T03:22:23.537Z,98884.00
2018-08-17T03:24:27.969Z,98886.00
2018-08-17T03:26:31.873Z,98883.00
2018-08-17T03:28:35.925Z,98882.00
2018-08-17T03:30:40.457Z,98887.00
2018-08-17T03:32:44.745Z,98886.00
2018-08-17T03:34:48.749Z,98890.00
2018-08-17T03:36:52.828Z,98891.00
2018-08-17T03:38:57.522Z,98893.00
2018-08-17T03:41:05.308Z,98894.00
2018-08-17T03:43:12.485Z,98895.00
2018-08-17T03:45:17.807Z,98888.00
2018-08-17T03:47:21.483Z,98891.00
2018-08-17T03:49:25.733Z,98888.00
2018-08-17T03:51:29.573Z,98891.00
2018-08-17T03:53:33.422Z,98893.00
2018-08-17T03:55:37.645Z,98896.00
2018-08-17T03:57:41.671Z,98890.00
2018-08-17T03:59:45.445Z,98896.00
2018-08-17T04:01:49.086Z,98900.00
2018-08-17T04:03:53.022Z,98900.00
2018-08-17T04:05:56.778Z,98905.00
2018-08-17T04:08:01.162Z,98909.00
2018-08-17T04:10:08.828Z,98912.00
2018-08-17T04:12:14.257Z,98915.00
2018-08-17T04:14:18.325Z,98916.00
2018-08-17T04:16:21.991Z,98919.00
2018-08-17T04:18:25.805Z,98921.00
2018-08-17T04:20:29.809Z,98924.00
2018-08-17T04:22:33.606Z,98918.00
2018-08-17T04:24:41.689Z,98930.00
2018-08-17T04:26:46.862Z,98924.00
2018-08-17T04:28:52.845Z,98932.00
2018-08-17T04:31:00.830Z,98931.00
2018-08-17T04:33:07.907Z,98933.00
2018-08-17T04:35:17.103Z,98934.00
2018-08-17T04:37:22.011Z,98936.00
2018-08-17T04:39:32.135Z,98938.00
2018-08-17T04:41:37.425Z,98938.00
2018-08-17T04:43:47.007Z,98935.00
2018-08-17T04:45:55.363Z,98939.00
2018-08-17T04:48:10.523Z,98933.00
2018-08-17T04:50:14.410Z,98932.00
2018-08-17T04:52:20.274Z,98932.00
2018-08-17T04:54:27.438Z,98937.00
2018-08-17T04:56:42.540Z,98944.00
2018-08-17T04:58:51.899Z,98941.00
2018-08-17T05:01:00.657Z,98943.00
2018-08-17T05:03:05.363Z,98938.00
2018-08-17T05:05:10.004Z,98942.00
2018-08-17T05:07:20.934Z,98947.00
2018-08-17T05:09:24.962Z,98938.00
2018-08-17T05:11:34.988Z,98945.00
2018-08-17T05:13:38.988Z,98946.00
2018-08-17T05:15:43.385Z,98948.00
2018-08-17T05:17:55.184Z,98952.00
2018-08-17T05:20:03.370Z,98954.00
2018-08-17T05:22:07.304Z,98958.00
2018-08-17T05:24:18.105Z,98958.00
2018-08-17T05:26:21.787Z,98954.00
2018-08-17T05:28:25.334Z,98955.00
2018-08-17T05:30:30.187Z,98955.00
2018-08-17T05:32:33.701Z,98955.00
2018-08-17T05:34:40.470Z,98957.00
2018-08-17T05:36:48.412Z,98961.00
2018-08-17T05:38:56.187Z,98963.00
2018-08-17T05:41:05.695Z,98965.00
2018-08-17T05:43:10.096Z,98966.00
2018-08-17T05:45:14.048Z,98960.00
2018-08-17T05:47:30.459Z,98964.00
2018-08-17T05:49:39.285Z,98958.00
2018-08-17T05:51:46.379Z,98961.00
2018-08-17T05:53:51.934Z,98962.00
2018-08-17T05:56:06.545Z,98963.00
2018-08-17T05:58:12.232Z,98963.00
2018-08-17T06:00:15.909Z,98960.00
2018-08-17T06:02:28.182Z,98962.00
2018-08-17T06:04:35.982Z,98961.00
2018-08-17T06:06:39.697Z,98964.00
2018-08-17T06:08:45.089Z,98962.00
2018-08-17T06:10:49.071Z,98960.00
2018-08-17T06:13:09.440Z,98965.00
2018-08-17T06:15:16.572Z,98966.00
2018-08-17T06:17:29.830Z,98966.00
2018-08-17T06:19:38.860Z,98960.00
2018-08-17T06:23:57.736Z,98962.00
2018-08-17T06:26:19.439Z,98965.00
2018-08-17T06:28:23.092Z,98967.00
2018-08-17T06:30:27.006Z,98966.00
2018-08-17T06:32:33.471Z,98969.00
2018-08-17T06:34:41.988Z,98962.00
2018-08-17T06:36:49.521Z,98966.00
2018-08-17T06:38:53.066Z,98968.00
2018-08-17T06:40:57.386Z,98965.00
2018-08-17T06:43:04.249Z,98967.00
2018-08-17T06:45:11.902Z,98970.00
2018-08-17T06:47:16.609Z,98971.00
2018-08-17T06:49:20.094Z,98969.00
2018-08-17T06:51:23.603Z,98974.00
2018-08-17T06:53:30.791Z,98972.00
2018-08-17T06:55:34.689Z,98971.00
2018-08-17T06:57:38.924Z,98973.00
2018-08-17T06:59:43.129Z,98974.00
2018-08-17T07:03:59.345Z,98966.00
2018-08-17T07:06:11.075Z,98969.00
2018-08-17T07:08:22.470Z,98964.00
2018-08-17T07:10:27.167Z,98969.00
2018-08-17T07:12:32.467Z,98972.00
2018-08-17T07:14:40.208Z,98975.00
2018-08-17T07:16:46.836Z,98977.00
2018-08-17T07:18:52.450Z,98981.00
2018-08-17T07:20:59.224Z,98980.00
2018-08-17T07:23:03.194Z,98985.00
2018-08-17T07:25:23.582Z,98985.00
2018-08-17T07:27:27.712Z,98984.00
2018-08-17T07:29:40.872Z,98986.00
2018-08-17T07:31:49.039Z,98982.00
2018-08-17T07:33:57.025Z,98985.00
2018-08-17T07:36:02.267Z,98988.00
2018-08-17T07:38:06.773Z,98994.00
2018-08-17T07:40:10.927Z,98990.00
2018-08-17T07:42:17.844Z,98989.00
2018-08-17T07:44:25.311Z,98985.00
2018-08-17T07:46:29.214Z,98980.00
2018-08-17T07:48:33.045Z,98983.00
2018-08-17T07:50:42.108Z,98983.00
2018-08-17T07:52:58.730Z,98983.00
2018-08-17T07:55:02.782Z,98983.00
2018-08-17T07:57:09.754Z,98983.00
2018-08-17T07:59:13.520Z,98987.00
2018-08-17T08:01:17.632Z,98994.00
2018-08-17T08:03:26.014Z,98987.00
2018-08-17T08:05:35.798Z,98994.00
2018-08-17T08:10:24.310Z,98998.00
2018-08-17T08:12:32.618Z,99001.00
2018-08-17T08:14:37.518Z,99000.00
2018-08-17T08:16:51.686Z,98995.00
2018-08-17T08:19:04.580Z,98994.00
2018-08-17T08:21:10.734Z,99000.00
2018-08-17T08:23:39.300Z,99003.00
2018-08-17T08:25:48.658Z,99005.00
2018-08-17T08:28:03.431Z,99004.00
2018-08-17T08:30:19.857Z,99003.00
2018-08-17T08:32:25.819Z,99007.00
2018-08-17T08:34:35.751Z,99012.00
2018-08-17T08:36:45.291Z,99014.00
2018-08-17T08:38:51.528Z,99021.00
2018-08-17T08:41:13.196Z,99017.00
2018-08-17T08:43:21.311Z,99019.00
2018-08-17T08:45:25.794Z,99022.00
2018-08-17T08:47:30.501Z,99023.00
2018-08-17T08:49:35.403Z,99020.00
2018-08-17T08:51:43.851Z,99017.00
2018-08-17T08:53:56.079Z,99015.00
2018-08-17T08:56:09.832Z,99015.00
2018-08-17T09:00:35.353Z,99024.00
2018-08-17T09:02:43.142Z,99020.00
2018-08-17T09:04:48.745Z,99020.00
2018-08-17T09:07:00.233Z,99013.00
2018-08-17T09:09:10.876Z,99024.00
2018-08-17T09:11:27.183Z,99023.00
2018-08-17T09:13:36.211Z,99016.00
2018-08-17T09:15:46.366Z,99011.00
2018-08-17T09:18:38.605Z,99024.00
2018-08-17T09:20:47.078Z,99028.00
2018-08-17T09:22:52.001Z,99032.00
2018-08-17T09:25:06.651Z,99036.00
2018-08-17T09:27:19.431Z,99027.00
2018-08-17T09:29:23.595Z,99031.00
2018-08-17T09:31:28.851Z,99017.00
2018-08-17T09:33:38.913Z,99033.00
2018-08-17T09:35:46.981Z,99031.00
2018-08-17T09:37:50.990Z,99026.00
2018-08-17T09:39:56.265Z,99011.00
2018-08-17T09:42:05.954Z,99027.00
2018-08-17T09:44:13.565Z,99020.00
2018-08-17T09:46:17.716Z,99016.00
2018-08-17T09:48:24.245Z,99007.00
2018-08-17T09:50:37.048Z,99011.00
2018-08-17T09:52:42.747Z,99009.00
2018-08-17T09:54:54.537Z,99022.00
2018-08-17T09:56:59.181Z,99014.00
2018-08-17T09:59:07.685Z,99014.00
2018-08-17T10:01:18.937Z,99014.00
2018-08-17T10:03:30.717Z,99018.00
2018-08-17T10:05:37.934Z,99027.00
2018-08-17T10:07:49.564Z,99014.00
2018-08-17T10:09:59.938Z,99014.00
2018-08-17T10:12:03.706Z,99001.00
2018-08-17T10:14:07.947Z,99014.00
2018-08-17T10:16:11.949Z,99003.00
2018-08-17T10:18:15.767Z,99019.00
2018-08-17T10:20:21.267Z,99012.00
2018-08-17T10:22:25.639Z,99010.00
2018-08-17T10:24:29.954Z,99017.00
2018-08-17T10:26:34.132Z,99020.00
2018-08-17T10:28:43.296Z,99018.00
2018-08-17T10:30:52.176Z,99012.00
2018-08-17T10:32:59.502Z,99019.00
2018-08-17T10:35:04.864Z,99020.00
2018-08-17T10:37:09.287Z,99014.00
2018-08-17T10:39:12.876Z,99016.00
2018-08-17T10:41:16.850Z,99018.00
2018-08-17T10:43:21.116Z,99026.00
2018-08-17T10:45:25.787Z,99034.00
2018-08-17T10:47:32.622Z,99023.00
2018-08-17T10:49:36.256Z,99026.00
2018-08-17T10:51:40.481Z,99021.00
2018-08-17T10:53:48.452Z,99006.00
2018-08-17T10:55:56.824Z,99018.00
2018-08-17T10:58:00.630Z,99025.00
2018-08-17T11:00:05.453Z,99018.00
2018-08-17T11:02:09.314Z,99013.00
2018-08-17T11:04:13.052Z,99024.00
2018-08-17T11:06:16.846Z,99007.00
2018-08-17T11:08:22.420Z,99022.00
2018-08-17T11:10:27.383Z,99004.00
2018-08-17T11:12:31.153Z,98994.00
2018-08-17T11:14:35.057Z,99000.00
2018-08-17T11:16:39.145Z,98986.00
2018-08-17T11:18:45.005Z,99022.00
2018-08-17T11:20:53.324Z,99014.00
2018-08-17T11:22:58.967Z,99006.00
2018-08-17T11:25:06.711Z,99004.00
2018-08-17T11:27:12.081Z,99013.00
2018-08-17T11:29:16.201Z,99003.00
2018-08-17T11:31:20.842Z,99011.00
2018-08-17T11:33:27.084Z,98996.00
2018-08-17T11:35:30.881Z,99035.00
2018-08-17T11:37:35.945Z,98990.00
2018-08-17T11:39:50.990Z,98995.00
2018-08-17T11:41:58.269Z,99009.00
2018-08-17T11:44:06.252Z,99027.00
2018-08-17T11:46:10.224Z,99013.00
2018-08-17T11:48:22.308Z,99018.00
2018-08-17T11:50:27.470Z,99012.00
2018-08-17T11:52:34.689Z,99014.00
2018-08-17T11:54:38.886Z,99019.00
2018-08-17T11:56:42.795Z,99011.00
2018-08-17T11:58:46.954Z,99006.00
2018-08-17T12:00:51.500Z,99006.00
2018-08-17T12:03:00.788Z,99003.00
2018-08-17T12:05:11.355Z,99012.00
2018-08-17T12:07:16.825Z,99000.00
2018-08-17T12:09:21.089Z,98997.00
2018-08-17T12:11:25.091Z,99005.00
2018-08-17T12:13:29.143Z,99003.00
2018-08-17T12:15:37.371Z,99007.00
2018-08-17T12:17:41.278Z,99012.00
2018-08-17T12:19:45.440Z,99001.00
2018-08-17T12:21:49.620Z,98985.00
2018-08-17T12:23:53.496Z,99013.00
2018-08-17T12:26:00.895Z,99021.00
2018-08-17T12:28:06.374Z,99031.00
2018-08-17T12:30:11.255Z,99024.00
2018-08-17T12:32:16.791Z,99032.00
2018-08-17T12:34:20.608Z,99011.00
2018-08-17T12:36:24.693Z,99013.00
2018-08-17T12:38:28.306Z,99006.00
2018-08-17T12:40:36.668Z,99009.00
2018-08-17T12:42:40.470Z,99028.00
2018-08-17T12:44:44.347Z,99017.00
2018-08-17T12:46:48.769Z,99014.00
2018-08-17T12:48:53.481Z,99014.00
2018-08-17T12:51:06.130Z,99003.00
2018-08-17T12:53:13.264Z,99009.00
2018-08-17T12:55:17.541Z,99011.00
2018-08-17T12:57:21.881Z,99006.00
2018-08-17T12:59:27.266Z,99004.00
2018-08-17T13:01:36.794Z,99006.00
2018-08-17T13:03:42.643Z,98999.00
2018-08-17T13:05:47.136Z,98992.00
2018-08-17T13:07:51.469Z,98994.00
2018-08-17T13:09:55.714Z,99004.00
2018-08-17T13:12:03.073Z,99004.00
2018-08-17T13:14:12.120Z,99000.00
2018-08-17T13:16:16.754Z,99001.00
2018-08-17T13:18:25.436Z,99001.00
2018-08-17T13:20:32.059Z,98993.00
2018-08-17T13:22:44.344Z,98994.00
2018-08-17T13:24:55.970Z,98989.00
2018-08-17T13:27:03.001Z,98991.00
2018-08-17T13:29:08.606Z,98981.00
2018-08-17T13:31:14.454Z,98980.00
2018-08-17T13:33:21.027Z,98977.00
2018-08-17T13:35:31.014Z,98977.00
2018-08-17T13:37:39.838Z,98960.00
2018-08-17T13:39:55.099Z,98965.00
2018-08-17T13:42:11.090Z,98949.00
2018-08-17T13:44:17.556Z,98963.00
2018-08-17T13:46:22.762Z,98957.00
2018-08-17T13:48:27.724Z,98954.00
2018-08-17T13:50:35.233Z,98950.00
2018-08-17T13:52:40.722Z,98955.00
2018-08-17T13:54:52.855Z,98950.00
2018-08-17T13:57:01.970Z,98954.00
2018-08-17T13:59:07.370Z,98943.00
2018-08-17T14:01:18.752Z,98943.00
2018-08-17T14:03:26.424Z,98964.00
2018-08-17T14:05:32.781Z,98951.00
2018-08-17T14:07:40.330Z,98954.00
2018-08-17T14:09:46.520Z,98951.00
2018-08-17T14:11:57.090Z,98949.00
2018-08-17T14:14:07.725Z,98944.00
2018-08-17T14:16:12.731Z,98945.00
2018-08-17T14:18:20.376Z,98939.00
2018-08-17T14:20:26.348Z,98944.00
2018-08-17T14:22:31.371Z,98936.00
2018-08-17T14:24:45.240Z,98948.00
2018-08-17T14:26:56.376Z,98943.00
2018-08-17T14:29:02.943Z,98940.00
2018-08-17T14:31:06.846Z,98930.00
2018-08-17T14:33:11.944Z,98932.00
2018-08-17T14:35:18.098Z,98943.00
2018-08-17T14:37:23.153Z,98944.00
2018-08-17T14:39:31.364Z,98940.00
2018-08-17T14:41:48.805Z,98938.00
2018-08-17T14:44:01.910Z,98941.00
2018-08-17T14:46:24.092Z,98928.00
2018-08-17T14:48:28.436Z,98923.00
2018-08-17T14:50:35.133Z,98925.00
2018-08-17T14:52:44.473Z,98923.00
2018-08-17T14:54:51.720Z,98915.00
2018-08-17T14:57:13.161Z,98928.00
2018-08-17T14:59:20.008Z,98926.00
2018-08-17T15:01:24.360Z,98926.00
2018-08-17T15:03:30.088Z,98925.00
2018-08-17T15:05:34.436Z,98931.00
2018-08-17T15:07:40.456Z,98929.00
2018-08-17T15:09:44.853Z,98928.00
2018-08-17T15:11:49.530Z,98926.00
2018-08-17T15:13:57.818Z,98926.00
2018-08-17T15:16:06.766Z,98932.00
2018-08-17T15:18:12.285Z,98937.00
2018-08-17T15:20:19.609Z,98933.00
2018-08-17T15:22:24.974Z,98942.00
2018-08-17T15:24:31.360Z,98940.00
2018-08-17T15:26:37.483Z,98937.00
2018-08-17T15:28:43.114Z,98930.00
2018-08-17T15:30:48.759Z,98930.00
2018-08-17T15:32:56.292Z,98932.00
2018-08-17T15:35:07.503Z,98928.00
2018-08-17T15:37:15.537Z,98926.00
2018-08-17T15:39:19.532Z,98929.00
2018-08-17T15:41:24.565Z,98918.00
2018-08-17T15:43:28.999Z,98925.00
2018-08-17T15:45:35.186Z,98921.00
2018-08-17T15:47:41.669Z,98917.00
2018-08-17T15:50:07.688Z,98908.00
2018-08-17T15:52:21.420Z,98912.00
2018-08-17T15:54:25.847Z,98921.00
2018-08-17T15:56:30.153Z,98921.00
2018-08-17T15:58:33.853Z,98930.00
2018-08-17T16:00:39.117Z,98934.00
2018-08-17T16:02:44.109Z,98944.00
2018-08-17T16:04:48.510Z,98959.00
2018-08-17T16:06:52.733Z,98943.00
2018-08-17T16:08:58.829Z,98945.00
2018-08-17T16:11:03.460Z,98933.00
2018-08-17T16:13:20.376Z,98950.00
2018-08-17T16:15:24.623Z,98953.00
2018-08-17T16:17:29.326Z,98929.00
2018-08-17T16:19:33.568Z,98900.00
2018-08-17T16:21:38.078Z,98907.00
2018-08-17T16:23:44.276Z,98959.00
2018-08-17T16:25:52.269Z,98935.00
2018-08-17T16:27:57.696Z,98908.00
2018-08-17T16:30:03.607Z,98937.00
2018-08-17T16:32:08.544Z,98938.00
2018-08-17T16:34:13.892Z,98943.00
2018-08-17T16:36:17.643Z,98943.00
2018-08-17T16:38:22.342Z,98947.00
2018-08-17T16:40:30.261Z,98949.00
2018-08-17T16:42:37.330Z,98942.00
2018-08-17T16:44:48.450Z,98945.00
2018-08-17T16:49:12.834Z,98942.00
2018-08-17T16:51:17.569Z,98938.00
2018-08-17T16:53:21.450Z,98937.00
2018-08-17T16:58:37.769Z,98962.00
2018-08-17T17:00:51.487Z,98975.00
2018-08-17T17:03:00.454Z,98976.00
2018-08-17T17:05:06.502Z,98981.00
2018-08-17T17:07:10.685Z,98985.00
2018-08-17T17:11:22.684Z,98987.00
2018-08-17T17:13:26.689Z,98999.00
2018-08-17T17:15:31.796Z,99004.00
2018-08-17T17:17:44.379Z,99021.00
2018-08-17T17:19:55.067Z,99029.00
2018-08-17T17:22:02.238Z,99035.00
2018-08-17T17:24:14.222Z,99038.00
2018-08-17T17:26:18.264Z,99035.00
2018-08-17T17:28:29.508Z,99035.00
2018-08-17T17:30:53.862Z,99045.00
2018-08-17T17:32:59.421Z,99054.00
2018-08-17T17:35:06.738Z,99062.00
2018-08-17T17:37:12.644Z,99066.00
2018-08-17T17:39:17.918Z,99072.00
2018-08-17T17:41:23.279Z,99078.00
2018-08-17T17:43:27.196Z,99087.00
2018-08-17T17:45:31.699Z,99090.00
2018-08-17T17:47:36.056Z,99095.00
2018-08-17T17:49:39.852Z,99097.00
2018-08-17T17:51:47.012Z,99095.00
2018-08-17T17:53:55.533Z,99104.00
2018-08-17T17:56:01.684Z,99099.00
2018-08-17T17:58:11.306Z,99101.00
2018-08-17T18:00:16.253Z,99107.00
2018-08-17T18:02:22.700Z,99112.00
2018-08-17T18:04:33.530Z,99114.00
2018-08-17T18:06:45.370Z,99125.00
2018-08-17T18:08:49.384Z,99136.00
2018-08-17T18:10:54.399Z,99134.00
2018-08-17T18:13:03.996Z,99140.00
2018-08-17T18:15:11.260Z,99151.00
2018-08-17T18:17:18.980Z,99150.00
2018-08-17T18:19:25.692Z,99165.00
2018-08-17T18:21:31.812Z,99172.00
2018-08-17T18:23:35.727Z,99171.00
2018-08-17T18:25:43.365Z,99173.00
2018-08-17T18:27:49.823Z,99179.00
2018-08-17T18:29:54.334Z,99191.00
2018-08-17T18:32:02.300Z,99203.00
2018-08-17T18:34:20.915Z,99205.00
2018-08-17T18:36:26.577Z,99212.00
2018-08-17T18:38:31.287Z,99218.00
2018-08-17T18:40:36.240Z,99219.00
2018-08-17T18:42:41.635Z,99217.00
2018-08-17T18:44:47.867Z,99214.00
2018-08-17T18:46:52.136Z,99219.00
2018-08-17T18:48:56.357Z,99223.00
2018-08-17T18:51:03.424Z,99221.00
2018-08-17T18:53:13.911Z,99217.00
2018-08-17T18:55:21.066Z,99225.00
2018-08-17T18:57:25.617Z,99225.00
2018-08-17T18:59:31.090Z,99230.00
2018-08-17T19:01:35.256Z,99244.00
2018-08-17T19:03:39.738Z,99251.00
2018-08-17T19:05:43.771Z,99260.00
2018-08-17T19:07:48.751Z,99264.00
2018-08-17T19:09:54.443Z,99271.00
2018-08-17T19:11:59.030Z,99269.00
2018-08-17T19:14:04.584Z,99267.00
2018-08-17T19:16:16.464Z,99270.00
2018-08-17T19:18:25.511Z,99275.00
2018-08-17T19:20:29.527Z,99265.00
2018-08-17T19:22:44.323Z,99263.00
2018-08-17T19:24:48.524Z,99261.00
2018-08-17T19:26:53.150Z,99259.00
2018-08-17T19:28:57.711Z,99268.00
2018-08-17T19:31:04.950Z,99266.00
2018-08-17T19:33:09.900Z,99258.00
2018-08-17T19:35:14.004Z,99261.00
2018-08-17T19:37:20.741Z,99260.00
2018-08-17T19:39:29.861Z,99278.00
2018-08-17T19:41:34.431Z,99277.00
2018-08-17T19:43:39.364Z,99282.00
2018-08-17T19:45:48.103Z,99287.00
2018-08-17T19:47:56.417Z,99286.00
2018-08-17T19:50:01.034Z,99286.00
2018-08-17T19:52:04.649Z,99287.00
2018-08-17T19:54:08.871Z,99290.00
2018-08-17T19:56:12.752Z,99288.00
2018-08-17T19:58:18.991Z,99294.00
2018-08-17T20:00:23.933Z,99292.00
2018-08-17T20:02:27.677Z,99291.00
2018-08-17T20:04:31.942Z,99295.00
2018-08-17T20:06:36.712Z,99299.00
2018-08-17T20:08:42.631Z,99304.00
2018-08-17T20:10:51.388Z,99301.00
2018-08-17T20:12:57.643Z,99299.00
2018-08-17T20:15:05.990Z,99301.00
2018-08-17T20:17:10.218Z,99301.00
2018-08-17T20:19:18.252Z,99308.00
2018-08-17T20:21:23.983Z,99312.00
2018-08-17T20:23:29.883Z,99319.00
2018-08-17T20:27:04.677Z,99319.00
2018-08-17T20:29:13.688Z,99331.00
2018-08-17T20:31:19.285Z,99334.00
2018-08-17T20:33:28.990Z,99332.00
2018-08-17T20:35:38.147Z,99339.00
2018-08-17T20:37:54.954Z,99340.00
2018-08-17T20:40:00.799Z,99344.00
2018-08-17T20:42:13.825Z,99350.00
2018-08-17T20:44:17.820Z,99350.00
2018-08-17T20:46:21.485Z,99352.00
2018-08-17T20:48:26.207Z,99358.00
2018-08-17T20:50:31.963Z,99358.00
2018-08-17T20:52:38.078Z,99359.00
2018-08-17T20:54:42.123Z,99360.00
2018-08-17T20:56:47.295Z,99368.00
2018-08-17T20:58:52.086Z,99367.00
2018-08-17T21:00:59.604Z,99364.00
2018-08-17T21:03:06.934Z,99364.00
2018-08-17T21:05:14.542Z,99363.00
2018-08-17T21:07:18.666Z,99360.00
2018-08-17T21:09:24.818Z,99360.00
2018-08-17T21:11:29.234Z,99370.00
2018-08-17T21:13:33.915Z,99366.00
2018-08-17T21:15:38.465Z,99375.00
2018-08-17T21:17:42.148Z,99380.00
2018-08-17T21:19:50.492Z,99383.00
2018-08-17T21:21:55.460Z,99384.00
2018-08-17T21:24:07.103Z,99386.00
2018-08-17T21:26:15.491Z,99391.00
2018-08-17T21:28:19.788Z,99393.00
2018-08-17T21:30:23.863Z,99393.00
2018-08-17T21:32:28.265Z,99399.00
2018-08-17T21:34:33.794Z,99404.00
2018-08-17T21:36:39.682Z,99409.00
2018-08-17T21:38:43.325Z,99411.00
2018-08-17T21:40:50.925Z,99405.00
2018-08-17T21:42:54.674Z,99410.00
2018-08-17T21:44:59.431Z,99416.00
2018-08-17T21:47:08.306Z,99420.00
2018-08-17T21:49:14.615Z,99423.00
2018-08-17T21:51:19.032Z,99431.00
2018-08-17T21:53:23.250Z,99440.00
2018-08-17T21:55:26.988Z,99440.00
2018-08-17T21:57:30.847Z,99452.00
2018-08-17T21:59:40.126Z,99449.00
2018-08-17T22:01:44.607Z,99455.00
2018-08-17T22:03:48.400Z,99455.00
2018-08-17T22:05:53.781Z,99457.00
2018-08-17T22:07:59.235Z,99454.00
2018-08-17T22:10:07.732Z,99453.00
2018-08-17T22:12:16.898Z,99452.00
2018-08-17T22:14:23.270Z,99454.00
2018-08-17T22:16:27.687Z,99452.00
2018-08-17T22:18:32.142Z,99449.00
2018-08-17T22:20:38.455Z,99451.00
2018-08-17T22:22:47.537Z,99457.00
2018-08-17T22:24:53.265Z,99462.00
2018-08-17T22:26:57.057Z,99471.00
2018-08-17T22:29:06.778Z,99475.00
2018-08-17T22:31:14.685Z,99481.00
2018-08-17T22:33:20.471Z,99485.00
2018-08-17T22:35:26.623Z,99485.00
2018-08-17T22:37:31.289Z,99487.00
2018-08-17T22:39:35.622Z,99483.00
2018-08-17T22:41:39.165Z,99488.00
2018-08-17T22:43:46.819Z,99485.00
2018-08-17T22:45:51.817Z,99487.00
2018-08-17T22:47:58.095Z,99490.00
2018-08-17T22:50:02.438Z,99492.00
2018-08-17T22:52:06.441Z,99499.00
2018-08-17T22:54:10.371Z,99500.00
2018-08-17T22:56:14.806Z,99498.00
2018-08-17T22:58:18.556Z,99504.00
2018-08-17T23:00:28.469Z,99501.00
2018-08-17T23:02:32.705Z,99505.00
2018-08-17T23:04:36.389Z,99501.00
2018-08-17T23:06:40.053Z,99504.00
2018-08-17T23:08:46.882Z,99508.00
2018-08-17T23:10:53.241Z,99516.00
2018-08-17T23:12:59.218Z,99516.00
2018-08-17T23:15:03.597Z,99515.00
2018-08-17T23:17:07.269Z,99513.00
2018-08-17T23:19:11.015Z,99514.00
2018-08-17T23:21:15.051Z,99516.00
2018-08-17T23:23:18.673Z,99515.00
2018-08-17T23:25:22.538Z,99522.00
2018-08-17T23:27:26.563Z,99527.00
2018-08-17T23:29:30.140Z,99525.00
2018-08-17T23:31:33.708Z,99531.00
2018-08-17T23:33:37.727Z,99532.00
2018-08-17T23:35:41.337Z,99528.00
2018-08-17T23:37:45.296Z,99536.00
2018-08-17T23:39:53.503Z,99528.00
2018-08-17T23:41:58.920Z,99524.00
2018-08-17T23:44:09.988Z,99528.00
2018-08-17T23:46:14.268Z,99521.00
2018-08-17T23:48:17.883Z,99511.00
2018-08-17T23:50:21.431Z,99510.00
2018-08-17T23:52:26.290Z,99509.00
2018-08-17T23:54:29.893Z,99507.00
2018-08-17T23:56:33.937Z,99506.00
2018-08-17T23:58:38.323Z,99507.00
